sensor_id;sensor_type;location;lat;lon;timestamp;pressure;altitude;pressure_sealevel;temperature;humidity
80533;BME280;69861;48.642;9.142;2023-05-10T00:00:36;96395.13;;;23.95;44.29
80533;BME280;69861;48.642;9.142;2023-05-10T00:03:01;96389.84;;;23.90;44.30
80533;BME280;69861;48.642;9.142;2023-05-10T00:05:29;96390.03;;;23.94;44.43
80533;BME280;69861;48.642;9.142;2023-05-10T00:07:54;96391.94;;;23.93;44.52
80533;BME280;69861;48.642;9.142;2023-05-10T00:10:20;96396.78;;;23.91;44.25
80533;BME280;69861;48.642;9.142;2023-05-10T00:12:45;96388.78;;;23.91;44.52
80533;BME280;69861;48.642;9.142;2023-05-10T00:15:10;96391.72;;;23.90;44.57
80533;BME280;69861;48.642;9.142;2023-05-10T00:17:36;96390.34;;;23.92;44.14
80533;BME280;69861;48.642;9.142;2023-05-10T00:20:02;96387.66;;;23.92;44.22
80533;BME280;69861;48.642;9.142;2023-05-10T00:22:30;96391.94;;;23.93;44.34
80533;BME280;69861;48.642;9.142;2023-05-10T00:24:55;96388.38;;;23.98;44.37
80533;BME280;69861;48.642;9.142;2023-05-10T00:27:20;96391.84;;;23.98;44.26
80533;BME280;69861;48.642;9.142;2023-05-10T00:29:46;96387.00;;;24.00;44.20
80533;BME280;69861;48.642;9.142;2023-05-10T00:32:11;96396.03;;;24.04;44.61
80533;BME280;69861;48.642;9.142;2023-05-10T00:34:36;96393.81;;;24.06;44.05
80533;BME280;69861;48.642;9.142;2023-05-10T00:37:01;96394.13;;;24.05;44.08
80533;BME280;69861;48.642;9.142;2023-05-10T00:39:27;96400.47;;;24.09;44.32
80533;BME280;69861;48.642;9.142;2023-05-10T00:41:53;96403.13;;;24.09;44.04
80533;BME280;69861;48.642;9.142;2023-05-10T00:44:19;96397.03;;;24.08;44.18
80533;BME280;69861;48.642;9.142;2023-05-10T00:46:44;96403.44;;;24.07;43.73
80533;BME280;69861;48.642;9.142;2023-05-10T00:49:10;96406.94;;;24.08;43.85
80533;BME280;69861;48.642;9.142;2023-05-10T00:51:36;96408.22;;;24.10;43.83
80533;BME280;69861;48.642;9.142;2023-05-10T00:54:02;96411.69;;;24.11;43.78
80533;BME280;69861;48.642;9.142;2023-05-10T00:56:28;96410.28;;;24.13;43.87
80533;BME280;69861;48.642;9.142;2023-05-10T00:58:55;96412.47;;;24.11;44.20
80533;BME280;69861;48.642;9.142;2023-05-10T01:01:20;96412.97;;;24.13;43.99
80533;BME280;69861;48.642;9.142;2023-05-10T01:03:46;96409.19;;;24.14;44.02
80533;BME280;69861;48.642;9.142;2023-05-10T01:06:12;96414.56;;;24.14;43.95
80533;BME280;69861;48.642;9.142;2023-05-10T01:08:38;96422.31;;;24.16;43.98
80533;BME280;69861;48.642;9.142;2023-05-10T01:11:04;96417.22;;;24.14;44.05
80533;BME280;69861;48.642;9.142;2023-05-10T01:13:41;96416.44;;;24.14;43.87
80533;BME280;69861;48.642;9.142;2023-05-10T01:16:07;96420.97;;;24.13;43.64
80533;BME280;69861;48.642;9.142;2023-05-10T01:18:35;96420.97;;;24.13;43.69
80533;BME280;69861;48.642;9.142;2023-05-10T01:21:17;96424.78;;;24.12;44.02
80533;BME280;69861;48.642;9.142;2023-05-10T01:29:25;96429.81;;;24.14;44.27
80533;BME280;69861;48.642;9.142;2023-05-10T01:34:45;96446.47;;;24.11;44.18
80533;BME280;69861;48.642;9.142;2023-05-10T01:37:21;96447.28;;;24.11;43.74
80533;BME280;69861;48.642;9.142;2023-05-10T01:42:55;96452.34;;;24.13;43.79
80533;BME280;69861;48.642;9.142;2023-05-10T01:45:35;96448.31;;;24.15;43.84
80533;BME280;69861;48.642;9.142;2023-05-10T01:48:08;96449.94;;;24.11;43.76
80533;BME280;69861;48.642;9.142;2023-05-10T01:50:36;96456.91;;;24.12;43.74
80533;BME280;69861;48.642;9.142;2023-05-10T01:53:02;96458.22;;;24.15;43.89
80533;BME280;69861;48.642;9.142;2023-05-10T01:55:33;96456.59;;;24.14;43.53
80533;BME280;69861;48.642;9.142;2023-05-10T01:58:07;96457.38;;;24.14;43.74
80533;BME280;69861;48.642;9.142;2023-05-10T02:00:35;96460.66;;;24.11;43.44
80533;BME280;69861;48.642;9.142;2023-05-10T02:03:04;96464.94;;;24.12;43.81
80533;BME280;69861;48.642;9.142;2023-05-10T02:05:31;96469.72;;;24.15;43.75
80533;BME280;69861;48.642;9.142;2023-05-10T02:07:58;96468.91;;;24.15;43.98
80533;BME280;69861;48.642;9.142;2023-05-10T02:10:27;96463.56;;;24.15;43.73
80533;BME280;69861;48.642;9.142;2023-05-10T02:12:53;96471.84;;;24.13;43.39
80533;BME280;69861;48.642;9.142;2023-05-10T02:15:22;96475.88;;;24.16;43.76
80533;BME280;69861;48.642;9.142;2023-05-10T02:17:48;96477.75;;;24.15;43.61
80533;BME280;69861;48.642;9.142;2023-05-10T02:20:15;96475.06;;;24.15;43.63
80533;BME280;69861;48.642;9.142;2023-05-10T02:22:42;96479.81;;;24.18;43.59
80533;BME280;69861;48.642;9.142;2023-05-10T02:25:11;96481.22;;;24.16;43.47
80533;BME280;69861;48.642;9.142;2023-05-10T02:27:41;96482.81;;;24.17;43.68
80533;BME280;69861;48.642;9.142;2023-05-10T02:30:10;96481.22;;;24.16;43.27
80533;BME280;69861;48.642;9.142;2023-05-10T02:32:36;96488.16;;;24.17;43.38
80533;BME280;69861;48.642;9.142;2023-05-10T02:35:03;96484.16;;;24.14;43.24
80533;BME280;69861;48.642;9.142;2023-05-10T02:37:29;96491.13;;;24.15;43.69
80533;BME280;69861;48.642;9.142;2023-05-10T02:39:55;96487.38;;;24.16;43.32
80533;BME280;69861;48.642;9.142;2023-05-10T02:42:26;96485.78;;;24.15;43.08
80533;BME280;69861;48.642;9.142;2023-05-10T02:44:56;96493.81;;;24.15;43.14
80533;BME280;69861;48.642;9.142;2023-05-10T02:47:22;96493.53;;;24.17;43.49
80533;BME280;69861;48.642;9.142;2023-05-10T02:49:48;96488.44;;;24.15;43.63
80533;BME280;69861;48.642;9.142;2023-05-10T02:52:16;96498.06;;;24.16;43.15
80533;BME280;69861;48.642;9.142;2023-05-10T02:54:45;96489.50;;;24.14;43.19
80533;BME280;69861;48.642;9.142;2023-05-10T02:57:17;96492.72;;;24.16;43.30
80533;BME280;69861;48.642;9.142;2023-05-10T02:59:44;96493.81;;;24.15;43.24
80533;BME280;69861;48.642;9.142;2023-05-10T03:02:12;96496.19;;;24.17;43.75
80533;BME280;69861;48.642;9.142;2023-05-10T03:04:37;96485.19;;;24.18;43.37
80533;BME280;69861;48.642;9.142;2023-05-10T03:07:02;96493.53;;;24.17;43.48
80533;BME280;69861;48.642;9.142;2023-05-10T03:09:28;96497.47;;;24.19;43.31
80533;BME280;69861;48.642;9.142;2023-05-10T03:12:38;96497.75;;;24.18;43.56
80533;BME280;69861;48.642;9.142;2023-05-10T03:18:10;96496.47;;;24.15;43.58
80533;BME280;69861;48.642;9.142;2023-05-10T03:21:03;96503.63;;;24.20;43.16
80533;BME280;69861;48.642;9.142;2023-05-10T03:23:35;96499.38;;;24.19;42.94
80533;BME280;69861;48.642;9.142;2023-05-10T03:26:00;96500.16;;;24.19;43.06
80533;BME280;69861;48.642;9.142;2023-05-10T03:28:27;96498.56;;;24.18;43.51
80533;BME280;69861;48.642;9.142;2023-05-10T03:30:53;96507.59;;;24.22;43.28
80533;BME280;69861;48.642;9.142;2023-05-10T03:33:19;96505.63;;;24.28;43.11
80533;BME280;69861;48.642;9.142;2023-05-10T03:35:45;96511.97;;;24.32;43.76
80533;BME280;69861;48.642;9.142;2023-05-10T03:38:11;96497.72;;;24.37;43.47
80533;BME280;69861;48.642;9.142;2023-05-10T03:40:37;96507.22;;;24.43;43.36
80533;BME280;69861;48.642;9.142;2023-05-10T03:43:02;96509.81;;;24.48;42.71
80533;BME280;69861;48.642;9.142;2023-05-10T03:45:27;96513.50;;;24.52;42.84
80533;BME280;69861;48.642;9.142;2023-05-10T03:47:53;96516.28;;;24.60;42.94
80533;BME280;69861;48.642;9.142;2023-05-10T03:50:19;96527.31;;;24.59;43.11
80533;BME280;69861;48.642;9.142;2023-05-10T03:52:45;96519.84;;;24.56;43.45
80533;BME280;69861;48.642;9.142;2023-05-10T03:55:10;96529.47;;;24.57;43.18
80533;BME280;69861;48.642;9.142;2023-05-10T03:57:36;96529.97;;;24.59;43.14
80533;BME280;69861;48.642;9.142;2023-05-10T04:00:02;96528.88;;;24.60;43.12
80533;BME280;69861;48.642;9.142;2023-05-10T04:02:28;96532.66;;;24.59;43.17
80533;BME280;69861;48.642;9.142;2023-05-10T04:04:55;96528.38;;;24.58;43.57
80533;BME280;69861;48.642;9.142;2023-05-10T04:07:20;96525.78;;;24.53;43.50
80533;BME280;69861;48.642;9.142;2023-05-10T04:09:45;96523.03;;;24.58;43.43
80533;BME280;69861;48.642;9.142;2023-05-10T04:12:10;96517.88;;;24.61;42.52
80533;BME280;69861;48.642;9.142;2023-05-10T04:14:36;96531.06;;;24.58;43.15
80533;BME280;69861;48.642;9.142;2023-05-10T04:17:02;96524.13;;;24.57;43.25
80533;BME280;69861;48.642;9.142;2023-05-10T04:19:30;96521.84;;;24.50;43.75
80533;BME280;69861;48.642;9.142;2023-05-10T04:21:56;96530.44;;;24.47;43.44
80533;BME280;69861;48.642;9.142;2023-05-10T04:24:21;96529.16;;;24.45;43.87
80533;BME280;69861;48.642;9.142;2023-05-10T04:26:47;96531.31;;;24.43;43.79
80533;BME280;69861;48.642;9.142;2023-05-10T04:29:12;96527.09;;;24.42;44.00
80533;BME280;69861;48.642;9.142;2023-05-10T04:31:37;96531.13;;;24.39;44.05
80533;BME280;69861;48.642;9.142;2023-05-10T04:34:03;96533.00;;;24.39;43.79
80533;BME280;69861;48.642;9.142;2023-05-10T04:36:28;96526.09;;;24.38;44.12
80533;BME280;69861;48.642;9.142;2023-05-10T04:38:53;96536.00;;;24.37;44.20
80533;BME280;69861;48.642;9.142;2023-05-10T04:41:19;96536.28;;;24.36;44.34
80533;BME280;69861;48.642;9.142;2023-05-10T04:43:45;96535.47;;;24.35;43.87
80533;BME280;69861;48.642;9.142;2023-05-10T04:46:11;96532.81;;;24.35;43.75
80533;BME280;69861;48.642;9.142;2023-05-10T04:48:36;96536.56;;;24.34;44.54
80533;BME280;69861;48.642;9.142;2023-05-10T04:51:01;96541.91;;;24.34;43.89
80533;BME280;69861;48.642;9.142;2023-05-10T04:53:28;96544.91;;;24.33;44.00
80533;BME280;69861;48.642;9.142;2023-05-10T04:55:54;96546.00;;;24.32;44.25
80533;BME280;69861;48.642;9.142;2023-05-10T04:58:19;96550.28;;;24.33;44.27
80533;BME280;69861;48.642;9.142;2023-05-10T05:00:44;96544.13;;;24.32;43.95
80533;BME280;69861;48.642;9.142;2023-05-10T05:03:09;96543.03;;;24.33;43.59
80533;BME280;69861;48.642;9.142;2023-05-10T05:05:35;96551.88;;;24.34;43.64
80533;BME280;69861;48.642;9.142;2023-05-10T05:08:00;96551.88;;;24.34;43.37
80533;BME280;69861;48.642;9.142;2023-05-10T05:10:25;96554.22;;;24.35;43.48
80533;BME280;69861;48.642;9.142;2023-05-10T05:12:51;96555.03;;;24.36;43.79
80533;BME280;69861;48.642;9.142;2023-05-10T05:15:16;96548.59;;;24.37;43.47
80533;BME280;69861;48.642;9.142;2023-05-10T05:17:42;96553.94;;;24.37;43.79
80533;BME280;69861;48.642;9.142;2023-05-10T05:20:08;96558.22;;;24.38;43.77
80533;BME280;69861;48.642;9.142;2023-05-10T05:22:33;96558.97;;;24.38;43.80
80533;BME280;69861;48.642;9.142;2023-05-10T05:24:59;96559.31;;;24.37;43.87
80533;BME280;69861;48.642;9.142;2023-05-10T05:27:24;96561.19;;;24.36;43.14
80533;BME280;69861;48.642;9.142;2023-05-10T05:29:57;96558.22;;;24.38;43.49
80533;BME280;69861;48.642;9.142;2023-05-10T05:32:23;96561.66;;;24.38;43.58
80533;BME280;69861;48.642;9.142;2023-05-10T05:34:49;96562.47;;;24.39;43.50
80533;BME280;69861;48.642;9.142;2023-05-10T05:37:19;96562.97;;;24.41;43.63
80533;BME280;69861;48.642;9.142;2023-05-10T05:39:45;96568.34;;;24.41;43.77
80533;BME280;69861;48.642;9.142;2023-05-10T05:42:12;96565.66;;;24.41;43.52
80533;BME280;69861;48.642;9.142;2023-05-10T05:44:38;96564.56;;;24.42;43.47
80533;BME280;69861;48.642;9.142;2023-05-10T05:47:04;96571.50;;;24.43;43.86
80533;BME280;69861;48.642;9.142;2023-05-10T05:49:30;96571.50;;;24.43;43.09
80533;BME280;69861;48.642;9.142;2023-05-10T05:51:59;96576.84;;;24.43;43.82
80533;BME280;69861;48.642;9.142;2023-05-10T05:54:25;96580.66;;;24.42;43.28
80533;BME280;69861;48.642;9.142;2023-05-10T05:56:54;96577.97;;;24.42;43.33
80533;BME280;69861;48.642;9.142;2023-05-10T05:59:19;96580.31;;;24.43;43.28
80533;BME280;69861;48.642;9.142;2023-05-10T06:01:45;96573.09;;;24.44;43.59
80533;BME280;69861;48.642;9.142;2023-05-10T06:04:10;96573.59;;;24.46;43.27
80533;BME280;69861;48.642;9.142;2023-05-10T06:06:35;96585.13;;;24.46;43.21
80533;BME280;69861;48.642;9.142;2023-05-10T06:09:01;96578.66;;;24.47;43.80
80533;BME280;69861;48.642;9.142;2023-05-10T06:11:26;96585.59;;;24.48;43.58
80533;BME280;69861;48.642;9.142;2023-05-10T06:13:52;96582.13;;;24.48;43.24
80533;BME280;69861;48.642;9.142;2023-05-10T06:16:17;96584.81;;;24.48;42.81
80533;BME280;69861;48.642;9.142;2023-05-10T06:18:42;96591.75;;;24.49;43.18
80533;BME280;69861;48.642;9.142;2023-05-10T06:21:08;96596.84;;;24.50;43.67
80533;BME280;69861;48.642;9.142;2023-05-10T06:23:34;96594.94;;;24.51;43.04
80533;BME280;69861;48.642;9.142;2023-05-10T06:25:59;96599.50;;;24.50;43.05
80533;BME280;69861;48.642;9.142;2023-05-10T06:28:25;96604.88;;;24.50;43.09
80533;BME280;69861;48.642;9.142;2023-05-10T06:30:50;96606.22;;;24.48;43.05
80533;BME280;69861;48.642;9.142;2023-05-10T06:33:15;96605.94;;;24.49;43.19
80533;BME280;69861;48.642;9.142;2023-05-10T06:35:41;96611.31;;;24.49;43.24
80533;BME280;69861;48.642;9.142;2023-05-10T06:38:06;96613.66;;;24.51;43.27
80533;BME280;69861;48.642;9.142;2023-05-10T06:40:32;96617.47;;;24.50;42.81
80533;BME280;69861;48.642;9.142;2023-05-10T06:42:58;96619.34;;;24.49;43.25
80533;BME280;69861;48.642;9.142;2023-05-10T06:45:23;96616.94;;;24.48;42.86
80533;BME280;69861;48.642;9.142;2023-05-10T06:47:48;96619.81;;;24.51;42.91
80533;BME280;69861;48.642;9.142;2023-05-10T06:50:13;96621.22;;;24.49;42.81
80533;BME280;69861;48.642;9.142;2023-05-10T06:52:39;96619.81;;;24.51;42.89
80533;BME280;69861;48.642;9.142;2023-05-10T06:55:05;96612.91;;;24.50;42.74
80533;BME280;69861;48.642;9.142;2023-05-10T06:57:31;96620.34;;;24.53;42.98
80533;BME280;69861;48.642;9.142;2023-05-10T06:59:59;96623.50;;;24.55;42.56
80533;BME280;69861;48.642;9.142;2023-05-10T07:02:25;96619.75;;;24.56;42.86
80533;BME280;69861;48.642;9.142;2023-05-10T07:04:50;96622.16;;;24.58;42.60
80533;BME280;69861;48.642;9.142;2023-05-10T07:07:17;96618.66;;;24.57;42.47
80533;BME280;69861;48.642;9.142;2023-05-10T07:09:42;96612.22;;;24.58;42.84
80533;BME280;69861;48.642;9.142;2023-05-10T07:12:08;96614.03;;;24.63;42.69
80533;BME280;69861;48.642;9.142;2023-05-10T07:14:33;96610.22;;;24.64;42.26
80533;BME280;69861;48.642;9.142;2023-05-10T07:16:58;96617.19;;;24.65;42.78
80533;BME280;69861;48.642;9.142;2023-05-10T07:19:23;96618.47;;;24.67;42.51
80533;BME280;69861;48.642;9.142;2023-05-10T07:21:49;96621.94;;;24.68;42.61
80533;BME280;69861;48.642;9.142;2023-05-10T07:24:15;96622.25;;;24.66;42.63
80533;BME280;69861;48.642;9.142;2023-05-10T07:26:40;96623.53;;;24.69;42.58
80533;BME280;69861;48.642;9.142;2023-05-10T07:29:05;96621.94;;;24.68;42.21
80533;BME280;69861;48.642;9.142;2023-05-10T07:31:31;96620.88;;;24.69;42.15
80533;BME280;69861;48.642;9.142;2023-05-10T07:33:56;96623.53;;;24.69;42.51
80533;BME280;69861;48.642;9.142;2023-05-10T07:36:21;96621.94;;;24.68;42.47
80533;BME280;69861;48.642;9.142;2023-05-10T07:38:47;96626.50;;;24.67;42.40
80533;BME280;69861;48.642;9.142;2023-05-10T07:41:12;96628.09;;;24.68;42.44
80533;BME280;69861;48.642;9.142;2023-05-10T07:43:37;96624.63;;;24.68;42.34
80533;BME280;69861;48.642;9.142;2023-05-10T07:46:03;96634.25;;;24.69;42.53
80533;BME280;69861;48.642;9.142;2023-05-10T07:48:28;96627.81;;;24.70;42.68
80533;BME280;69861;48.642;9.142;2023-05-10T07:50:53;96632.38;;;24.69;42.50
80533;BME280;69861;48.642;9.142;2023-05-10T07:53:19;96632.66;;;24.68;42.66
80533;BME280;69861;48.642;9.142;2023-05-10T07:55:50;96637.75;;;24.69;42.55
80533;BME280;69861;48.642;9.142;2023-05-10T07:58:15;96632.88;;;24.71;42.61
80533;BME280;69861;48.642;9.142;2023-05-10T08:00:41;96634.25;;;24.69;42.29
80533;BME280;69861;48.642;9.142;2023-05-10T08:03:06;96631.09;;;24.67;42.49
80533;BME280;69861;48.642;9.142;2023-05-10T08:05:31;96634.06;;;24.65;42.62
80533;BME280;69861;48.642;9.142;2023-05-10T08:07:56;96636.47;;;24.67;42.49
80533;BME280;69861;48.642;9.142;2023-05-10T08:10:22;96638.53;;;24.70;42.60
80533;BME280;69861;48.642;9.142;2023-05-10T08:12:48;96639.63;;;24.69;42.66
80533;BME280;69861;48.642;9.142;2023-05-10T08:15:13;96639.63;;;24.69;42.65
80533;BME280;69861;48.642;9.142;2023-05-10T08:17:39;96643.31;;;24.73;42.52
80533;BME280;69861;48.642;9.142;2023-05-10T08:20:04;96642.22;;;24.74;42.30
80533;BME280;69861;48.642;9.142;2023-05-10T08:22:30;96645.97;;;24.73;42.18
80533;BME280;69861;48.642;9.142;2023-05-10T08:24:55;96647.28;;;24.76;42.62
80533;BME280;69861;48.642;9.142;2023-05-10T08:27:21;96649.38;;;24.79;42.22
80533;BME280;69861;48.642;9.142;2023-05-10T08:29:46;96647.28;;;24.76;42.46
80533;BME280;69861;48.642;9.142;2023-05-10T08:32:11;96645.31;;;24.81;42.27
80533;BME280;69861;48.642;9.142;2023-05-10T08:34:36;96646.91;;;24.82;42.08
80533;BME280;69861;48.642;9.142;2023-05-10T08:37:02;96653.34;;;24.81;42.20
80533;BME280;69861;48.642;9.142;2023-05-10T08:39:28;96650.06;;;24.84;42.10
80533;BME280;69861;48.642;9.142;2023-05-10T08:41:54;96655.97;;;24.86;42.06
80533;BME280;69861;48.642;9.142;2023-05-10T08:44:23;96656.44;;;24.88;41.95
80533;BME280;69861;48.642;9.142;2023-05-10T08:46:51;96658.09;;;24.84;42.34
80533;BME280;69861;48.642;9.142;2023-05-10T08:49:19;96655.41;;;24.84;42.03
80533;BME280;69861;48.642;9.142;2023-05-10T08:51:51;96666.69;;;24.86;42.29
80533;BME280;69861;48.642;9.142;2023-05-10T08:54:17;96663.22;;;24.86;42.32
80533;BME280;69861;48.642;9.142;2023-05-10T08:56:42;96656.97;;;24.90;42.24
80533;BME280;69861;48.642;9.142;2023-05-10T08:59:08;96665.81;;;24.91;41.88
80533;BME280;69861;48.642;9.142;2023-05-10T09:01:35;96675.44;;;24.92;41.83
80533;BME280;69861;48.642;9.142;2023-05-10T09:04:02;96673.25;;;24.94;41.95
80533;BME280;69861;48.642;9.142;2023-05-10T09:06:28;96678.91;;;24.92;42.13
80533;BME280;69861;48.642;9.142;2023-05-10T09:08:53;96680.00;;;24.91;42.04
80533;BME280;69861;48.642;9.142;2023-05-10T09:11:19;96679.13;;;24.96;41.88
80533;BME280;69861;48.642;9.142;2023-05-10T09:13:47;96670.28;;;24.95;41.93
80533;BME280;69861;48.642;9.142;2023-05-10T09:16:13;96676.72;;;24.94;42.17
80533;BME280;69861;48.642;9.142;2023-05-10T09:18:38;96678.31;;;24.95;42.13
80533;BME280;69861;48.642;9.142;2023-05-10T09:21:03;96680.22;;;24.95;41.78
80533;BME280;69861;48.642;9.142;2023-05-10T09:23:28;96680.22;;;24.95;41.93
80533;BME280;69861;48.642;9.142;2023-05-10T09:26:23;96684.78;;;24.94;41.77
80533;BME280;69861;48.642;9.142;2023-05-10T09:28:59;96679.59;;;24.98;41.80
80533;BME280;69861;48.642;9.142;2023-05-10T09:31:43;96679.91;;;24.96;41.70
80533;BME280;69861;48.642;9.142;2023-05-10T09:34:09;96680.41;;;24.98;41.98
80533;BME280;69861;48.642;9.142;2023-05-10T09:36:34;96680.91;;;25.00;41.95
80533;BME280;69861;48.642;9.142;2023-05-10T09:38:59;96678.00;;;24.97;42.02
80533;BME280;69861;48.642;9.142;2023-05-10T09:41:25;96679.13;;;24.96;42.09
80533;BME280;69861;48.642;9.142;2023-05-10T09:43:55;96689.84;;;24.96;42.03
80533;BME280;69861;48.642;9.142;2023-05-10T09:46:21;96691.53;;;24.92;42.09
80533;BME280;69861;48.642;9.142;2023-05-10T09:48:48;96687.53;;;24.89;42.05
80533;BME280;69861;48.642;9.142;2023-05-10T09:51:23;96687.25;;;24.91;42.07
80533;BME280;69861;48.642;9.142;2023-05-10T09:54:16;96682.16;;;24.89;42.30
80533;BME280;69861;48.642;9.142;2023-05-10T09:56:42;96684.56;;;24.91;42.17
80533;BME280;69861;48.642;9.142;2023-05-10T09:59:10;96687.72;;;24.93;42.15
80533;BME280;69861;48.642;9.142;2023-05-10T10:01:36;96683.16;;;24.93;42.10
80533;BME280;69861;48.642;9.142;2023-05-10T10:04:05;96681.28;;;24.94;41.79
80533;BME280;69861;48.642;9.142;2023-05-10T10:06:40;96675.66;;;24.95;41.89
80533;BME280;69861;48.642;9.142;2023-05-10T10:09:07;96684.16;;;24.97;41.73
80533;BME280;69861;48.642;9.142;2023-05-10T10:11:36;96684.16;;;24.97;41.95
80533;BME280;69861;48.642;9.142;2023-05-10T10:14:02;96680.31;;;25.03;41.93
80533;BME280;69861;48.642;9.142;2023-05-10T10:16:31;96674.97;;;25.03;41.66
80533;BME280;69861;48.642;9.142;2023-05-10T10:18:57;96682.22;;;25.03;41.78
80533;BME280;69861;48.642;9.142;2023-05-10T10:21:23;96678.44;;;25.04;41.63
80533;BME280;69861;48.642;9.142;2023-05-10T10:23:49;96683.00;;;25.03;41.89
80533;BME280;69861;48.642;9.142;2023-05-10T10:26:15;96689.38;;;25.07;41.81
80533;BME280;69861;48.642;9.142;2023-05-10T10:29:00;96680.25;;;25.08;41.52
80533;BME280;69861;48.642;9.142;2023-05-10T10:31:47;96680.53;;;25.07;41.70
80533;BME280;69861;48.642;9.142;2023-05-10T10:34:25;96676.44;;;25.09;41.51
80533;BME280;69861;48.642;9.142;2023-05-10T10:36:52;96680.25;;;25.08;41.82
80533;BME280;69861;48.642;9.142;2023-05-10T10:39:19;96675.28;;;25.15;41.32
80533;BME280;69861;48.642;9.142;2023-05-10T10:41:56;96678.75;;;25.16;41.79
80533;BME280;69861;48.642;9.142;2023-05-10T10:44:47;96679.22;;;25.18;41.41
80533;BME280;69861;48.642;9.142;2023-05-10T10:50:03;96674.75;;;25.13;41.65
80533;BME280;69861;48.642;9.142;2023-05-10T10:52:39;96675.88;;;25.12;41.75
80533;BME280;69861;48.642;9.142;2023-05-10T10:55:09;96676.34;;;25.14;41.69
80533;BME280;69861;48.642;9.142;2023-05-10T11:02:59;96705.66;;;25.11;41.82
80533;BME280;69861;48.642;9.142;2023-05-10T11:05:43;96711.69;;;25.03;42.07
80533;BME280;69861;48.642;9.142;2023-05-10T11:08:11;96718.53;;;24.95;42.01
80533;BME280;69861;48.642;9.142;2023-05-10T11:10:37;96723.09;;;24.95;41.86
80533;BME280;69861;48.642;9.142;2023-05-10T11:13:08;96726.84;;;24.94;42.21
80533;BME280;69861;48.642;9.142;2023-05-10T11:15:35;96733.91;;;24.90;41.94
80533;BME280;69861;48.642;9.142;2023-05-10T11:18:20;96728.81;;;24.88;42.16
80533;BME280;69861;48.642;9.142;2023-05-10T11:20:56;96720.78;;;24.88;42.24
80533;BME280;69861;48.642;9.142;2023-05-10T11:23:22;96721.88;;;24.87;41.99
80533;BME280;69861;48.642;9.142;2023-05-10T11:25:49;96717.06;;;24.84;42.00
80533;BME280;69861;48.642;9.142;2023-05-10T11:28:17;96717.63;;;24.86;41.99
80533;BME280;69861;48.642;9.142;2023-05-10T11:30:43;96717.31;;;24.88;42.28
80533;BME280;69861;48.642;9.142;2023-05-10T11:33:09;96723.22;;;24.85;42.34
80533;BME280;69861;48.642;9.142;2023-05-10T11:35:40;96731.50;;;24.88;42.03
80533;BME280;69861;48.642;9.142;2023-05-10T11:38:10;96719.25;;;24.82;42.45
80533;BME280;69861;48.642;9.142;2023-05-10T11:40:36;96725.66;;;24.86;42.37
80533;BME280;69861;48.642;9.142;2023-05-10T11:43:02;96726.72;;;24.85;42.19
80533;BME280;69861;48.642;9.142;2023-05-10T11:45:29;96732.59;;;24.87;42.27
80533;BME280;69861;48.642;9.142;2023-05-10T11:47:55;96735.78;;;24.89;42.15
80533;BME280;69861;48.642;9.142;2023-05-10T11:50:21;96731.22;;;24.90;41.97
80533;BME280;69861;48.642;9.142;2023-05-10T11:52:51;96741.34;;;24.93;41.76
80533;BME280;69861;48.642;9.142;2023-05-10T11:55:18;96749.91;;;24.95;42.12
80533;BME280;69861;48.642;9.142;2023-05-10T11:57:44;96746.13;;;24.96;41.82
80533;BME280;69861;48.642;9.142;2023-05-10T12:00:11;96746.34;;;24.99;41.71
80533;BME280;69861;48.642;9.142;2023-05-10T12:02:37;96749.72;;;25.05;41.54
80533;BME280;69861;48.642;9.142;2023-05-10T12:05:03;96736.31;;;25.05;41.85
80533;BME280;69861;48.642;9.142;2023-05-10T12:07:30;96744.28;;;25.10;41.70
80533;BME280;69861;48.642;9.142;2023-05-10T12:10:12;96739.78;;;25.05;41.46
80533;BME280;69861;48.642;9.142;2023-05-10T12:12:46;96742.19;;;25.07;41.47
80533;BME280;69861;48.642;9.142;2023-05-10T12:15:19;96745.59;;;25.12;41.49
80533;BME280;69861;48.642;9.142;2023-05-10T12:17:48;96740.22;;;25.12;41.65
80533;BME280;69861;48.642;9.142;2023-05-10T12:20:21;96745.88;;;25.11;41.77
80533;BME280;69861;48.642;9.142;2023-05-10T12:22:54;96745.47;;;25.04;41.92
80533;BME280;69861;48.642;9.142;2023-05-10T12:25:21;96742.78;;;25.04;41.63
80533;BME280;69861;48.642;9.142;2023-05-10T12:27:51;96744.94;;;25.02;41.65
80533;BME280;69861;48.642;9.142;2023-05-10T12:30:23;96749.31;;;24.98;41.96
80533;BME280;69861;48.642;9.142;2023-05-10T12:32:49;96743.66;;;24.99;42.01
80533;BME280;69861;48.642;9.142;2023-05-10T12:35:15;96751.50;;;24.96;41.90
80533;BME280;69861;48.642;9.142;2023-05-10T12:37:42;96750.50;;;24.92;42.22
80533;BME280;69861;48.642;9.142;2023-05-10T12:40:09;96749.09;;;24.94;41.91
80533;BME280;69861;48.642;9.142;2023-05-10T12:42:36;96749.09;;;24.94;41.85
80533;BME280;69861;48.642;9.142;2023-05-10T12:45:03;96751.50;;;24.96;42.03
80533;BME280;69861;48.642;9.142;2023-05-10T12:47:29;96749.09;;;24.94;41.98
80533;BME280;69861;48.642;9.142;2023-05-10T12:49:55;96751.78;;;24.94;42.07
80533;BME280;69861;48.642;9.142;2023-05-10T12:52:20;96750.69;;;24.95;42.08
80533;BME280;69861;48.642;9.142;2023-05-10T12:54:46;96750.38;;;24.97;41.85
80533;BME280;69861;48.642;9.142;2023-05-10T12:57:12;96748.50;;;24.97;41.82
80533;BME280;69861;48.642;9.142;2023-05-10T12:59:38;96747.94;;;25.00;41.74
80533;BME280;69861;48.642;9.142;2023-05-10T13:02:03;96747.34;;;25.03;41.97
80533;BME280;69861;48.642;9.142;2023-05-10T13:04:28;96746.34;;;24.99;41.67
80533;BME280;69861;48.642;9.142;2023-05-10T13:06:54;96745.75;;;25.02;41.69
80533;BME280;69861;48.642;9.142;2023-05-10T13:09:23;96739.59;;;25.02;41.60
80533;BME280;69861;48.642;9.142;2023-05-10T13:11:48;96742.78;;;25.04;41.53
80533;BME280;69861;48.642;9.142;2023-05-10T13:14:15;96742.47;;;25.05;41.80
80533;BME280;69861;48.642;9.142;2023-05-10T13:16:40;96741.97;;;25.03;41.63
80533;BME280;69861;48.642;9.142;2023-05-10T13:19:06;96751.31;;;25.06;41.70
80533;BME280;69861;48.642;9.142;2023-05-10T13:21:31;96752.69;;;25.03;41.72
80533;BME280;69861;48.642;9.142;2023-05-10T13:23:56;96742.19;;;25.07;41.91